createdAt,value
2022-12-01T00:00:01.151Z,4.49
2022-12-01T00:10:22.626Z,4.48
2022-12-01T00:20:25.079Z,4.45
2022-12-01T00:30:27.529Z,4.44
2022-12-01T00:40:30.130Z,4.45
2022-12-01T00:50:32.676Z,4.43
2022-12-01T01:00:39.233Z,4.39
2022-12-01T01:10:44.711Z,4.38
2022-12-01T01:20:55.251Z,4.34
2022-12-01T01:30:57.687Z,4.29
2022-12-01T01:41:00.257Z,4.25
2022-12-01T01:51:03.616Z,4.23
2022-12-01T02:01:07.211Z,4.21
2022-12-01T02:11:52.288Z,4.25
2022-12-01T02:22:19.404Z,4.23
2022-12-01T02:32:30.794Z,4.17
2022-12-01T02:42:53.893Z,4.17
2022-12-01T02:52:57.465Z,4.15
2022-12-01T03:03:37.521Z,4.13
2022-12-01T03:14:18.595Z,4.14
2022-12-01T03:24:26.539Z,4.14
2022-12-01T03:34:48.149Z,4.12
2022-12-01T03:44:57.728Z,4.09
2022-12-01T03:55:18.448Z,4.05
2022-12-01T04:05:25.197Z,4.04
2022-12-01T04:15:28.617Z,4.00
2022-12-01T04:25:31.165Z,3.99
2022-12-01T04:35:33.702Z,4.01
2022-12-01T04:45:35.990Z,3.99
2022-12-01T04:55:39.871Z,3.98
2022-12-01T05:05:42.316Z,4.01
2022-12-01T05:15:44.804Z,4.00
2022-12-01T05:25:47.279Z,4.02
2022-12-01T05:35:50.367Z,4.00
2022-12-01T05:45:52.793Z,3.94
2022-12-01T05:55:55.749Z,3.93
2022-12-01T06:05:58.269Z,3.94
2022-12-01T06:16:03.536Z,3.90
2022-12-01T06:26:05.876Z,3.94
2022-12-01T06:36:08.895Z,3.94
2022-12-01T06:46:11.691Z,3.89
2022-12-01T06:56:14.464Z,3.87
2022-12-01T07:06:18.388Z,3.81
2022-12-01T07:16:21.178Z,3.77
2022-12-01T07:26:23.819Z,3.64
2022-12-01T07:36:27.044Z,3.48
2022-12-01T07:46:29.788Z,3.44
2022-12-01T07:56:33.015Z,3.24
2022-12-01T08:06:37.334Z,3.21
2022-12-01T08:16:40.826Z,3.20
2022-12-01T08:26:43.717Z,3.17
2022-12-01T08:36:46.300Z,3.17
2022-12-01T08:46:48.883Z,3.08
2022-12-01T08:56:53.003Z,3.09
2022-12-01T09:06:57.579Z,3.06
2022-12-01T09:17:02.055Z,3.02
2022-12-01T09:27:06.174Z,3.10
2022-12-01T09:37:09.982Z,3.15
2022-12-01T09:47:12.756Z,3.21
2022-12-01T09:57:34.331Z,3.36
2022-12-01T10:07:45.393Z,3.52
2022-12-01T10:18:17.729Z,3.51
2022-12-01T10:29:03.471Z,3.55
2022-12-01T10:39:08.083Z,3.51
2022-12-01T10:49:16.771Z,3.61
2022-12-01T10:59:34.354Z,3.66
2022-12-01T11:09:37.972Z,3.83
2022-12-01T11:19:40.965Z,3.87
2022-12-01T11:29:44.692Z,4.04
2022-12-01T11:39:49.468Z,4.23
2022-12-01T11:50:07.537Z,4.15
2022-12-01T12:00:30.133Z,4.04
2022-12-01T12:10:49.536Z,4.09
2022-12-01T12:21:23.696Z,4.14
2022-12-01T12:32:03.275Z,4.16
2022-12-01T12:42:22.002Z,4.18
2022-12-01T12:52:51.240Z,4.18
2022-12-01T13:02:54.276Z,4.17
2022-12-01T13:13:26.206Z,4.21
2022-12-01T13:23:29.695Z,4.26
2022-12-01T13:33:34.251Z,4.22
2022-12-01T13:43:38.332Z,4.06
2022-12-01T13:53:58.763Z,4.09
2022-12-01T14:04:26.283Z,3.93
2022-12-01T14:14:37.107Z,3.82
2022-12-01T14:24:53.519Z,3.77
2022-12-01T14:35:00.260Z,3.70
2022-12-01T14:45:05.015Z,3.59
2022-12-01T14:55:18.990Z,3.47
2022-12-01T15:05:27.632Z,3.41
2022-12-01T15:15:30.300Z,3.37
2022-12-01T15:25:36.034Z,3.29
2022-12-01T15:35:38.832Z,3.23
2022-12-01T15:45:52.081Z,3.23
2022-12-01T15:55:59.212Z,3.07
2022-12-01T16:06:03.112Z,3.02
2022-12-01T16:16:30.035Z,3.03
2022-12-01T16:26:34.569Z,2.99
2022-12-01T16:36:37.359Z,2.94
2022-12-01T16:46:44.823Z,2.87
2022-12-01T16:56:47.726Z,2.89
2022-12-01T17:06:50.483Z,2.85
2022-12-01T17:16:53.187Z,2.84
2022-12-01T17:26:56.035Z,2.83
2022-12-01T17:36:58.595Z,2.78
2022-12-01T17:47:01.327Z,2.75
2022-12-01T17:57:04.171Z,2.76
2022-12-01T18:07:08.104Z,2.78
2022-12-01T18:17:11.041Z,2.73
2022-12-01T18:27:13.984Z,2.67
2022-12-01T18:37:16.604Z,2.68
2022-12-01T18:47:19.190Z,2.68
2022-12-01T18:57:21.811Z,2.71
2022-12-01T19:07:29.516Z,2.66
2022-12-01T19:17:33.402Z,2.74
2022-12-01T19:27:36.117Z,2.64
2022-12-01T19:37:38.907Z,2.69
2022-12-01T19:47:41.379Z,2.71
2022-12-01T19:57:43.637Z,2.71
2022-12-01T20:07:46.404Z,2.74
2022-12-01T20:17:50.907Z,2.72
2022-12-01T20:27:53.819Z,2.71
2022-12-01T20:37:56.753Z,2.67
2022-12-01T20:47:59.510Z,2.69
2022-12-01T20:58:03.481Z,2.67
2022-12-01T21:08:08.358Z,2.68
2022-12-01T21:18:23.028Z,2.69
2022-12-01T21:28:27.544Z,2.77
2022-12-01T21:38:32.549Z,2.79
2022-12-01T21:48:37.631Z,2.71
2022-12-01T21:58:40.167Z,2.74
2022-12-01T22:08:46.621Z,2.78
2022-12-01T22:18:55.546Z,2.83
2022-12-01T22:29:00.416Z,2.82
2022-12-01T22:39:27.476Z,2.83
2022-12-01T22:49:30.987Z,2.77
2022-12-01T22:59:38.256Z,2.79
2022-12-01T23:09:43.539Z,2.80
2022-12-01T23:19:46.040Z,2.71
2022-12-01T23:29:48.410Z,2.75
2022-12-01T23:39:51.717Z,2.70
2022-12-01T23:50:01.726Z,2.69
